createdAt,value
2023-01-13T00:00:56.950Z,9.80
2023-01-13T00:04:58.613Z,9.80
2023-01-13T00:09:00.178Z,9.80
2023-01-13T00:13:03.220Z,9.70
2023-01-13T00:17:04.816Z,9.80
2023-01-13T00:21:08.578Z,9.70
2023-01-13T00:25:10.111Z,9.70
2023-01-13T00:29:11.745Z,9.70
2023-01-13T00:33:13.500Z,9.70
2023-01-13T00:37:15.125Z,9.70
2023-01-13T00:41:18.357Z,9.70
2023-01-13T00:45:20.003Z,9.70
2023-01-13T00:49:22.277Z,9.80
2023-01-13T00:53:24.163Z,9.80
2023-01-13T00:57:25.754Z,9.80
2023-01-13T01:01:27.528Z,9.80
2023-01-13T01:05:29.168Z,9.80
2023-01-13T01:09:33.522Z,9.60
2023-01-13T01:13:35.407Z,9.40
2023-01-13T01:17:37.196Z,9.40
2023-01-13T01:21:38.737Z,9.20
2023-01-13T01:25:40.351Z,9.10
2023-01-13T01:29:41.949Z,9.00
2023-01-13T01:33:43.573Z,8.90
2023-01-13T01:37:45.180Z,8.90
2023-01-13T01:42:06.701Z,8.90
2023-01-13T01:46:08.272Z,8.90
2023-01-13T01:50:10.165Z,8.70
2023-01-13T01:54:14.084Z,8.60
2023-01-13T01:58:18.666Z,8.50
2023-01-13T02:02:20.616Z,8.40
2023-01-13T02:06:22.529Z,8.30
2023-01-13T02:10:27.580Z,8.30
2023-01-13T02:14:30.378Z,8.20
2023-01-13T02:18:48.688Z,8.10
2023-01-13T02:23:05.883Z,8.10
2023-01-13T02:27:07.471Z,8.00
2023-01-13T02:31:33.273Z,8.00
2023-01-13T02:35:38.042Z,7.90
2023-01-13T02:39:53.433Z,7.90
2023-01-13T02:44:07.127Z,7.90
2023-01-13T02:48:09.042Z,7.90
2023-01-13T02:52:13.945Z,7.80
2023-01-13T02:56:16.413Z,7.70
2023-01-13T03:00:18.765Z,7.60
2023-01-13T03:04:39.710Z,7.60
2023-01-13T03:08:42.769Z,7.60
2023-01-13T03:12:50.630Z,7.60
2023-01-13T03:17:02.396Z,7.60
2023-01-13T03:21:03.988Z,7.50
2023-01-13T03:25:15.697Z,7.50
2023-01-13T03:29:22.284Z,7.50
2023-01-13T03:33:29.182Z,7.50
2023-01-13T03:37:34.553Z,7.50
2023-01-13T03:41:38.761Z,7.40
2023-01-13T03:45:41.575Z,7.40
2023-01-13T03:49:51.547Z,7.50
2023-01-13T03:53:56.184Z,7.50
2023-01-13T04:02:32.963Z,7.40
2023-01-13T04:06:34.756Z,7.40
2023-01-13T04:10:40.776Z,7.30
2023-01-13T04:14:42.657Z,7.30
2023-01-13T04:18:44.278Z,7.20
2023-01-13T04:22:45.897Z,7.20
2023-01-13T04:27:34.650Z,7.20
2023-01-13T04:31:37.034Z,7.10
2023-01-13T04:35:40.897Z,7.10
2023-01-13T04:39:42.713Z,7.10
2023-01-13T04:43:44.241Z,7.10
2023-01-13T04:47:47.466Z,7.00
2023-01-13T04:51:49.137Z,6.90
2023-01-13T04:55:52.058Z,6.90
2023-01-13T04:59:53.622Z,6.90
2023-01-13T05:03:55.236Z,6.90
2023-01-13T05:07:57.057Z,6.90
2023-01-13T05:12:17.331Z,6.90
2023-01-13T05:16:39.212Z,7.00
2023-01-13T05:20:40.858Z,7.00
2023-01-13T05:25:01.517Z,7.10
2023-01-13T05:29:03.143Z,7.20
2023-01-13T05:33:04.946Z,7.20
2023-01-13T05:37:07.991Z,7.20
2023-01-13T05:41:28.520Z,7.20
2023-01-13T05:45:30.490Z,7.20
2023-01-13T05:49:32.122Z,7.10
2023-01-13T05:53:34.221Z,7.30
2023-01-13T05:57:35.816Z,7.20
2023-01-13T06:01:37.422Z,7.40
2023-01-13T06:05:39.399Z,7.30
2023-01-13T06:09:41.031Z,7.30
2023-01-13T06:13:42.621Z,7.40
2023-01-13T06:17:44.196Z,7.40
2023-01-13T06:21:45.809Z,7.40
2023-01-13T06:25:58.845Z,7.40
2023-01-13T06:30:01.470Z,7.50
2023-01-13T06:34:05.709Z,7.50
2023-01-13T06:38:08.691Z,7.50
2023-01-13T06:42:29.115Z,7.30
2023-01-13T06:46:30.754Z,7.40
2023-01-13T06:50:32.397Z,7.40
2023-01-13T06:54:34.692Z,7.50
2023-01-13T06:58:36.497Z,7.60
2023-01-13T07:02:38.119Z,7.70
2023-01-13T07:06:39.752Z,7.60
2023-01-13T07:10:41.410Z,7.60
2023-01-13T07:15:02.038Z,7.70
2023-01-13T07:19:03.684Z,7.70
2023-01-13T07:23:05.281Z,7.70
2023-01-13T07:27:07.052Z,7.60
2023-01-13T07:31:16.457Z,7.70
2023-01-13T07:35:23.027Z,7.80
2023-01-13T07:39:24.657Z,7.80
2023-01-13T07:43:32.366Z,7.70
2023-01-13T07:47:33.970Z,7.60
2023-01-13T07:51:37.238Z,7.50
2023-01-13T07:55:42.785Z,7.40
2023-01-13T07:59:44.386Z,7.30
2023-01-13T08:03:49.069Z,7.30
2023-01-13T08:07:50.676Z,7.30
2023-01-13T08:12:14.201Z,7.20
2023-01-13T08:16:16.409Z,7.30
2023-01-13T08:20:18.443Z,7.30
2023-01-13T08:24:20.037Z,7.30
2023-01-13T08:28:23.886Z,7.30
2023-01-13T08:32:25.511Z,7.30
2023-01-13T08:36:27.090Z,7.30
2023-01-13T08:40:28.758Z,7.30
2023-01-13T08:44:31.877Z,7.30
2023-01-13T08:48:33.920Z,7.50
2023-01-13T08:52:35.787Z,7.50
2023-01-13T08:56:37.437Z,7.60
2023-01-13T09:00:39.130Z,7.70
2023-01-13T09:04:40.873Z,7.80
2023-01-13T09:08:42.555Z,7.70
2023-01-13T09:13:02.978Z,7.70
2023-01-13T09:17:04.666Z,7.60
2023-01-13T09:21:06.354Z,7.70
2023-01-13T09:25:08.696Z,7.80
2023-01-13T09:29:10.462Z,7.80
2023-01-13T09:33:30.841Z,7.90
2023-01-13T09:37:36.563Z,7.90
2023-01-13T09:42:00.114Z,8.00
2023-01-13T09:46:04.487Z,8.00
2023-01-13T09:50:15.068Z,8.10
2023-01-13T09:54:22.635Z,8.10
2023-01-13T09:58:24.959Z,8.20
2023-01-13T10:02:29.492Z,8.10
2023-01-13T10:06:38.780Z,8.10
2023-01-13T10:10:48.398Z,8.20
2023-01-13T10:14:52.501Z,8.20
2023-01-13T10:18:54.065Z,8.30
2023-01-13T10:23:07.933Z,8.30
2023-01-13T10:27:23.487Z,8.20
2023-01-13T10:31:26.110Z,8.20
2023-01-13T10:35:46.527Z,8.20
2023-01-13T10:39:49.112Z,8.30
2023-01-13T10:44:06.750Z,8.40
2023-01-13T10:48:13.964Z,8.50
2023-01-13T10:52:26.267Z,8.50
2023-01-13T10:56:29.952Z,8.40
2023-01-13T11:00:33.527Z,8.40
2023-01-13T11:04:36.937Z,8.40
2023-01-13T11:08:45.105Z,8.50
2023-01-13T11:13:05.678Z,8.50
2023-01-13T11:17:29.494Z,8.60
2023-01-13T11:21:35.686Z,8.60
2023-01-13T11:25:43.220Z,8.60
2023-01-13T11:30:10.734Z,8.60
2023-01-13T11:34:21.176Z,8.60
2023-01-13T11:38:28.418Z,8.70
2023-01-13T11:42:32.315Z,8.60
2023-01-13T11:46:34.153Z,8.40
2023-01-13T11:50:41.753Z,8.10
2023-01-13T11:54:49.586Z,8.10
2023-01-13T11:59:09.920Z,8.10
2023-01-13T12:03:14.598Z,8.30
2023-01-13T12:07:16.322Z,8.30
2023-01-13T12:11:28.190Z,8.30
2023-01-13T12:15:29.842Z,8.40
2023-01-13T12:19:32.398Z,8.50
2023-01-13T12:23:37.472Z,8.60
2023-01-13T12:27:39.590Z,8.60
2023-01-13T12:31:41.553Z,8.50
2023-01-13T12:35:49.877Z,8.50
2023-01-13T12:40:14.626Z,8.70
2023-01-13T12:44:20.284Z,8.70
2023-01-13T12:48:45.068Z,8.90
2023-01-13T12:52:46.760Z,8.70
2023-01-13T12:56:48.568Z,8.70
2023-01-13T13:00:58.404Z,8.70
2023-01-13T13:05:20.301Z,8.80
2023-01-13T13:09:29.050Z,8.70
2023-01-13T13:13:42.080Z,8.70
2023-01-13T13:17:44.425Z,8.60
2023-01-13T13:22:04.991Z,8.30
2023-01-13T13:26:24.213Z,8.40
2023-01-13T13:30:25.847Z,8.40
2023-01-13T13:34:36.521Z,8.30
2023-01-13T13:39:08.948Z,8.30
2023-01-13T13:43:31.169Z,8.30
2023-01-13T13:47:36.473Z,8.40
2023-01-13T13:51:41.726Z,8.50
2023-01-13T13:55:51.806Z,8.60
2023-01-13T13:59:58.378Z,8.60
2023-01-13T14:04:11.029Z,8.60
2023-01-13T14:08:14.989Z,8.60
2023-01-13T14:12:18.815Z,8.70
2023-01-13T14:16:20.414Z,8.70
2023-01-13T14:20:22.082Z,8.70
2023-01-13T14:24:25.020Z,8.70
2023-01-13T14:28:29.042Z,8.70
2023-01-13T14:32:36.133Z,8.80
2023-01-13T14:36:38.880Z,8.80
2023-01-13T14:40:44.671Z,8.50
2023-01-13T14:44:50.361Z,8.20
2023-01-13T14:48:53.384Z,8.00
2023-01-13T14:52:57.120Z,7.80
2023-01-13T14:57:14.129Z,7.60
2023-01-13T15:01:25.924Z,7.60
2023-01-13T15:05:27.678Z,7.40
2023-01-13T15:09:33.349Z,7.50
2023-01-13T15:13:35.892Z,7.50
2023-01-13T15:17:38.615Z,7.60
2023-01-13T15:21:40.592Z,7.70
2023-01-13T15:25:42.965Z,7.70
2023-01-13T15:29:44.598Z,7.60
2023-01-13T15:33:46.287Z,7.70
2023-01-13T15:37:48.561Z,7.70
2023-01-13T15:42:08.751Z,7.70
2023-01-13T15:46:30.919Z,7.80
2023-01-13T15:50:32.556Z,7.80
2023-01-13T15:54:35.021Z,7.70
2023-01-13T15:58:36.587Z,7.80
2023-01-13T16:02:38.379Z,7.70
2023-01-13T16:06:40.053Z,7.70
2023-01-13T16:10:42.431Z,7.70
2023-01-13T16:14:44.103Z,7.70
2023-01-13T16:18:45.757Z,7.70
2023-01-13T16:22:47.391Z,7.80
2023-01-13T16:26:49.053Z,7.70
2023-01-13T16:30:51.058Z,7.80
2023-01-13T16:34:52.728Z,7.80
2023-01-13T16:38:54.683Z,7.80
2023-01-13T16:42:56.882Z,7.60
2023-01-13T16:46:58.464Z,7.70
2023-01-13T16:51:00.457Z,7.60
2023-01-13T16:55:02.093Z,7.60
2023-01-13T16:59:05.677Z,7.60
2023-01-13T17:03:07.496Z,7.60
2023-01-13T17:07:10.820Z,7.60
2023-01-13T17:11:13.056Z,7.60
2023-01-13T17:15:15.650Z,7.60
2023-01-13T17:19:17.325Z,7.60
2023-01-13T17:23:18.927Z,7.60
2023-01-13T17:27:21.430Z,7.60
2023-01-13T17:31:41.704Z,7.60
2023-01-13T17:35:43.354Z,7.60
2023-01-13T17:39:49.536Z,7.60
2023-01-13T17:43:52.104Z,7.60
2023-01-13T17:47:57.933Z,7.70
2023-01-13T17:52:00.045Z,7.60
2023-01-13T17:56:01.659Z,7.50
2023-01-13T18:00:04.664Z,7.50
2023-01-13T18:04:06.856Z,7.40
2023-01-13T18:08:08.693Z,7.30
2023-01-13T18:12:10.690Z,7.30
2023-01-13T18:16:13.507Z,7.30
2023-01-13T18:20:34.315Z,7.30
2023-01-13T18:24:54.439Z,7.20
2023-01-13T18:28:56.110Z,7.20
2023-01-13T18:32:58.157Z,7.20
2023-01-13T18:36:59.789Z,7.20
2023-01-13T18:41:21.387Z,7.20
2023-01-13T18:45:27.886Z,7.20
2023-01-13T18:49:29.550Z,7.20
2023-01-13T18:53:32.399Z,7.20
2023-01-13T18:57:40.423Z,7.10
2023-01-13T19:01:42.729Z,7.10
2023-01-13T19:05:44.404Z,7.10
2023-01-13T19:09:46.011Z,7.10
2023-01-13T19:13:47.787Z,7.10
2023-01-13T19:17:49.571Z,7.00
2023-01-13T19:21:51.165Z,6.90
2023-01-13T19:25:53.910Z,7.00
2023-01-13T19:29:58.717Z,7.00
2023-01-13T19:34:00.345Z,7.10
2023-01-13T19:38:02.031Z,7.20
2023-01-13T19:42:22.382Z,7.20
2023-01-13T19:46:25.945Z,7.20
2023-01-13T19:50:28.124Z,7.30
2023-01-13T19:54:29.925Z,7.30
2023-01-13T19:58:31.508Z,7.30
2023-01-13T20:02:33.184Z,7.50
2023-01-13T20:06:34.888Z,7.40
2023-01-13T20:10:37.104Z,7.40
2023-01-13T20:14:38.933Z,7.50
2023-01-13T20:18:40.606Z,7.50
2023-01-13T20:22:42.448Z,7.50
2023-01-13T20:26:45.387Z,7.50
2023-01-13T20:30:47.463Z,7.40
2023-01-13T20:34:49.260Z,7.50
2023-01-13T20:38:50.975Z,7.50
2023-01-13T20:42:52.691Z,7.50
2023-01-13T20:46:55.726Z,7.50
2023-01-13T20:50:58.949Z,7.40
2023-01-13T20:55:00.618Z,7.40
2023-01-13T20:59:02.372Z,7.40
2023-01-13T21:03:03.963Z,7.30
2023-01-13T21:12:38.949Z,7.30
2023-01-13T21:16:40.609Z,7.30
2023-01-13T21:20:42.445Z,7.20
2023-01-13T21:24:44.253Z,7.20
2023-01-13T21:28:46.344Z,7.20
2023-01-13T21:32:47.993Z,7.20
2023-01-13T21:36:49.650Z,7.20
2023-01-13T21:41:02.909Z,7.10
2023-01-13T21:45:23.244Z,7.10
2023-01-13T21:49:24.829Z,7.10
2023-01-13T21:53:26.436Z,7.20
2023-01-13T21:57:28.070Z,7.00
2023-01-13T22:01:29.830Z,7.10
2023-01-13T22:05:31.654Z,7.20
2023-01-13T22:09:33.280Z,7.30
2023-01-13T22:13:53.521Z,7.30
2023-01-13T22:17:55.784Z,7.20
2023-01-13T22:21:57.475Z,7.20
2023-01-13T22:26:05.910Z,7.10
2023-01-13T22:30:10.908Z,7.20
2023-01-13T22:34:12.684Z,7.10
2023-01-13T22:38:14.269Z,7.10
2023-01-13T22:42:15.929Z,7.10
2023-01-13T22:46:17.683Z,7.00
2023-01-13T22:50:20.898Z,7.00
2023-01-13T22:54:22.566Z,7.00
2023-01-13T22:58:24.643Z,7.00
2023-01-13T23:02:26.284Z,7.00
2023-01-13T23:06:28.597Z,7.00
2023-01-13T23:10:30.172Z,6.90
2023-01-13T23:14:31.792Z,6.90
2023-01-13T23:18:33.759Z,6.80
2023-01-13T23:22:38.486Z,6.80
2023-01-13T23:26:40.099Z,6.80
2023-01-13T23:30:41.785Z,6.80
2023-01-13T23:34:43.396Z,6.80
2023-01-13T23:38:45.384Z,6.70
2023-01-13T23:42:46.987Z,6.70
2023-01-13T23:46:48.685Z,6.70
2023-01-13T23:50:57.772Z,6.80
2023-01-13T23:54:59.418Z,6.80
2023-01-13T23:59:01.362Z,6.80
